createdAt,value
2019-03-09T00:00:47.360Z,12.36
2019-03-09T00:03:19.353Z,11.77
2019-03-09T00:05:49.913Z,11.72
2019-03-09T00:08:20.693Z,11.74
2019-03-09T00:10:51.152Z,11.64
2019-03-09T00:13:21.659Z,11.90
2019-03-09T00:15:52.361Z,11.86
2019-03-09T00:18:22.708Z,11.59
2019-03-09T00:20:53.219Z,11.60
2019-03-09T00:23:45.731Z,11.78
2019-03-09T00:26:35.745Z,12.16
2019-03-09T00:29:14.493Z,12.15
2019-03-09T00:31:49.715Z,12.03
2019-03-09T00:34:20.190Z,11.77
2019-03-09T00:36:50.980Z,11.78
2019-03-09T00:39:21.360Z,11.65
2019-03-09T00:41:51.681Z,11.57
2019-03-09T00:44:22.395Z,11.62
2019-03-09T00:46:52.742Z,11.53
2019-03-09T00:49:23.169Z,11.18
2019-03-09T00:51:53.822Z,11.29
2019-03-09T00:54:24.478Z,11.11
2019-03-09T00:56:55.865Z,10.59
2019-03-09T00:59:26.196Z,10.80
2019-03-09T01:01:56.506Z,10.88
2019-03-09T01:04:27.162Z,10.67
2019-03-09T01:06:57.453Z,10.66
2019-03-09T01:09:27.927Z,10.63
2019-03-09T01:11:58.699Z,10.57
2019-03-09T01:14:29.223Z,10.61
2019-03-09T01:16:59.712Z,10.49
2019-03-09T01:19:30.503Z,10.24
2019-03-09T01:22:01.209Z,10.47
2019-03-09T01:24:31.754Z,9.95
2019-03-09T01:27:02.194Z,9.94
2019-03-09T01:29:32.588Z,9.92
2019-03-09T01:32:03.323Z,9.94
2019-03-09T01:34:33.760Z,9.90
2019-03-09T01:37:04.201Z,9.93
2019-03-09T01:39:34.938Z,9.94
2019-03-09T01:42:05.692Z,10.27
2019-03-09T01:44:36.061Z,10.74
2019-03-09T01:47:06.715Z,10.73
2019-03-09T01:49:37.359Z,10.67
2019-03-09T01:52:07.710Z,10.75
2019-03-09T01:54:38.159Z,10.69
2019-03-09T01:57:08.554Z,10.53
2019-03-09T01:59:38.922Z,10.45
2019-03-09T02:02:09.581Z,10.42
2019-03-09T02:04:39.878Z,10.35
2019-03-09T02:07:10.812Z,10.31
2019-03-09T02:09:41.499Z,10.21
2019-03-09T02:12:13.110Z,9.80
2019-03-09T02:14:43.552Z,10.04
2019-03-09T02:17:14.382Z,9.92
2019-03-09T02:19:44.732Z,10.02
2019-03-09T02:22:15.104Z,10.25
2019-03-09T02:24:45.903Z,10.31
2019-03-09T02:27:16.256Z,10.23
2019-03-09T02:29:47.061Z,10.41
2019-03-09T02:32:17.410Z,10.20
2019-03-09T02:34:48.222Z,10.33
2019-03-09T02:37:18.856Z,10.32
2019-03-09T02:39:54.404Z,10.25
2019-03-09T02:42:24.707Z,10.22
2019-03-09T02:44:55.462Z,10.34
2019-03-09T02:47:25.823Z,10.05
2019-03-09T02:49:56.136Z,10.19
2019-03-09T02:52:26.695Z,10.04
2019-03-09T02:54:57.234Z,10.11
2019-03-09T02:57:27.526Z,10.22
2019-03-09T02:59:58.213Z,10.22
2019-03-09T03:02:33.701Z,10.10
2019-03-09T03:05:04.054Z,10.04
2019-03-09T03:07:34.785Z,10.00
2019-03-09T03:10:06.356Z,9.80
2019-03-09T03:12:36.735Z,9.88
2019-03-09T03:15:07.773Z,9.91
2019-03-09T03:17:38.451Z,9.88
2019-03-09T03:20:09.432Z,9.71
2019-03-09T03:22:39.761Z,9.78
2019-03-09T03:25:10.507Z,9.80
2019-03-09T03:27:40.823Z,9.77
2019-03-09T03:30:11.296Z,9.84
2019-03-09T03:32:42.028Z,9.78
2019-03-09T03:35:12.646Z,9.79
2019-03-09T03:37:43.408Z,9.58
2019-03-09T03:40:14.103Z,9.14
2019-03-09T03:42:44.595Z,8.96
2019-03-09T03:45:15.748Z,9.03
2019-03-09T03:47:46.031Z,8.86
2019-03-09T03:50:16.380Z,9.06
2019-03-09T03:52:47.086Z,9.14
2019-03-09T03:55:17.439Z,9.27
2019-03-09T03:57:47.723Z,9.47
2019-03-09T04:00:18.353Z,9.40
2019-03-09T04:02:49.001Z,9.20
2019-03-09T04:05:19.583Z,9.14
2019-03-09T04:07:49.877Z,9.09
2019-03-09T04:10:20.701Z,9.21
2019-03-09T04:12:52.035Z,9.58
2019-03-09T04:15:22.605Z,9.25
2019-03-09T04:17:52.902Z,9.18
2019-03-09T04:20:23.689Z,9.06
2019-03-09T04:22:54.065Z,9.07
2019-03-09T04:25:24.392Z,8.91
2019-03-09T04:27:54.773Z,9.36
2019-03-09T04:30:25.238Z,9.33
2019-03-09T04:32:55.511Z,9.32
2019-03-09T04:35:26.040Z,9.27
2019-03-09T04:37:56.328Z,8.83
2019-03-09T04:40:26.895Z,9.10
2019-03-09T04:42:58.246Z,9.30
2019-03-09T04:45:28.708Z,9.13
2019-03-09T04:47:59.356Z,9.23
2019-03-09T04:50:29.990Z,9.29
2019-03-09T04:53:00.374Z,9.30
2019-03-09T04:55:31.099Z,9.33
2019-03-09T04:58:01.484Z,9.15
2019-03-09T05:00:31.807Z,9.43
2019-03-09T05:03:02.239Z,9.48
2019-03-09T05:05:32.903Z,9.33
2019-03-09T05:08:30.335Z,9.40
2019-03-09T05:11:14.204Z,9.21
2019-03-09T05:14:07.004Z,9.13
2019-03-09T05:16:37.707Z,9.14
2019-03-09T05:19:08.398Z,8.80
2019-03-09T05:21:38.739Z,8.82
2019-03-09T05:24:09.087Z,8.90
2019-03-09T05:26:39.431Z,8.89
2019-03-09T05:29:09.750Z,8.94
2019-03-09T05:31:40.064Z,8.84
2019-03-09T05:34:10.795Z,8.61
2019-03-09T05:36:41.111Z,8.53
2019-03-09T05:39:11.433Z,8.46
2019-03-09T05:41:42.031Z,8.47
2019-03-09T05:44:12.519Z,8.47
2019-03-09T05:46:42.884Z,8.70
2019-03-09T05:49:13.213Z,9.12
2019-03-09T05:51:43.698Z,9.15
2019-03-09T05:54:14.318Z,9.37
2019-03-09T05:56:44.799Z,9.49
2019-03-09T05:59:15.157Z,10.00
2019-03-09T06:01:46.306Z,10.04
2019-03-09T06:04:16.915Z,9.81
2019-03-09T06:06:47.326Z,10.18
2019-03-09T06:09:17.897Z,10.10
2019-03-09T06:11:49.512Z,10.05
2019-03-09T06:14:19.863Z,10.00
2019-03-09T06:16:50.216Z,9.68
2019-03-09T06:19:20.543Z,10.09
2019-03-09T06:21:51.254Z,10.24
2019-03-09T06:24:21.725Z,10.27
2019-03-09T06:26:52.215Z,10.41
2019-03-09T06:29:22.838Z,10.53
2019-03-09T06:32:29.992Z,10.59
2019-03-09T06:35:00.454Z,10.47
2019-03-09T06:37:31.078Z,10.50
2019-03-09T06:40:01.506Z,10.73
2019-03-09T06:42:56.992Z,10.93
2019-03-09T06:45:27.440Z,11.07
2019-03-09T06:47:57.892Z,11.19
2019-03-09T06:50:28.404Z,11.34
2019-03-09T06:52:59.008Z,11.19
2019-03-09T06:55:29.308Z,11.24
2019-03-09T06:58:00.052Z,11.23
2019-03-09T07:00:41.071Z,11.34
2019-03-09T07:03:12.142Z,11.37
2019-03-09T07:05:42.659Z,11.06
2019-03-09T07:08:13.431Z,11.14
2019-03-09T07:10:43.752Z,11.17
2019-03-09T07:13:14.303Z,11.13
2019-03-09T07:15:45.885Z,11.39
2019-03-09T07:18:29.090Z,11.26
2019-03-09T07:21:00.690Z,11.44
2019-03-09T07:23:31.399Z,11.73
2019-03-09T07:26:01.971Z,12.01
2019-03-09T07:28:32.254Z,12.06
2019-03-09T07:31:02.832Z,12.42
2019-03-09T07:33:34.543Z,12.46
2019-03-09T07:36:05.010Z,12.80
2019-03-09T07:38:35.628Z,13.09
2019-03-09T07:41:06.449Z,13.28
2019-03-09T07:43:36.884Z,13.61
2019-03-09T07:46:07.512Z,13.96
2019-03-09T07:48:38.087Z,14.08
2019-03-09T07:51:08.379Z,14.39
2019-03-09T07:53:38.986Z,14.60
2019-03-09T07:56:09.291Z,14.80
2019-03-09T07:58:40.084Z,15.03
2019-03-09T08:01:10.532Z,15.46
2019-03-09T08:03:40.970Z,15.64
2019-03-09T08:06:11.377Z,16.00
2019-03-09T08:08:41.961Z,16.17
2019-03-09T08:11:12.238Z,16.13
2019-03-09T08:13:42.619Z,16.33
2019-03-09T08:16:13.042Z,16.22
2019-03-09T08:18:45.350Z,15.89
2019-03-09T08:21:15.877Z,16.00
2019-03-09T08:23:46.475Z,16.39
2019-03-09T08:26:16.962Z,15.24
2019-03-09T08:28:47.896Z,16.56
2019-03-09T08:31:18.309Z,16.22
2019-03-09T08:33:48.651Z,16.43
2019-03-09T08:36:19.285Z,16.16
2019-03-09T08:38:49.578Z,16.39
2019-03-09T08:41:19.837Z,16.65
2019-03-09T08:43:50.319Z,16.66
2019-03-09T08:46:20.789Z,16.82
2019-03-09T08:48:51.134Z,17.18
2019-03-09T08:51:21.687Z,17.45
2019-03-09T08:53:52.354Z,17.94
2019-03-09T08:56:22.779Z,17.94
2019-03-09T08:58:53.098Z,17.80
2019-03-09T09:01:23.411Z,17.73
2019-03-09T09:03:54.086Z,17.78
2019-03-09T09:06:24.669Z,17.78
2019-03-09T09:08:54.955Z,17.80
2019-03-09T09:11:25.341Z,17.51
2019-03-09T09:13:55.880Z,17.66
2019-03-09T09:16:26.156Z,17.70
2019-03-09T09:18:56.951Z,17.70
2019-03-09T09:21:27.611Z,18.09
2019-03-09T09:23:57.949Z,18.08
2019-03-09T09:26:28.703Z,18.19
2019-03-09T09:28:59.299Z,18.35
2019-03-09T09:31:29.667Z,18.35
2019-03-09T09:34:00.013Z,17.76
2019-03-09T09:36:30.513Z,17.76
2019-03-09T09:39:00.845Z,17.98
2019-03-09T09:41:32.733Z,18.15
2019-03-09T09:44:04.852Z,18.29
2019-03-09T09:46:35.338Z,18.66
2019-03-09T09:49:05.649Z,18.37
2019-03-09T09:51:36.548Z,18.54
2019-03-09T09:54:07.244Z,18.66
2019-03-09T09:56:37.650Z,18.30
2019-03-09T09:59:08.294Z,18.51
2019-03-09T10:01:38.634Z,18.59
2019-03-09T10:04:09.304Z,17.74
2019-03-09T10:06:39.844Z,18.30
2019-03-09T10:09:10.572Z,18.69
2019-03-09T10:11:41.150Z,18.61
2019-03-09T10:14:12.062Z,18.82
2019-03-09T10:16:42.433Z,18.85
2019-03-09T10:19:13.153Z,19.13
2019-03-09T10:21:43.933Z,19.40
2019-03-09T10:24:14.208Z,19.15
2019-03-09T10:26:44.691Z,19.14
2019-03-09T10:29:15.476Z,18.73
2019-03-09T10:31:45.897Z,19.78
2019-03-09T10:34:16.637Z,19.42
2019-03-09T10:36:46.950Z,19.57
2019-03-09T10:39:17.320Z,19.51
2019-03-09T10:41:47.758Z,19.20
2019-03-09T10:44:18.028Z,19.47
2019-03-09T10:46:48.400Z,19.25
2019-03-09T10:49:20.231Z,19.49
2019-03-09T10:51:50.619Z,19.84
2019-03-09T10:54:21.098Z,19.84
2019-03-09T10:56:51.627Z,19.68
2019-03-09T10:59:22.970Z,19.95
2019-03-09T11:01:53.299Z,19.45
2019-03-09T11:04:27.692Z,19.78
2019-03-09T11:06:55.839Z,19.69
2019-03-09T11:09:26.205Z,19.65
2019-03-09T11:11:56.526Z,19.68
2019-03-09T11:14:26.842Z,19.56
2019-03-09T11:16:57.629Z,19.52
2019-03-09T11:19:27.919Z,20.21
2019-03-09T11:21:58.216Z,20.23
2019-03-09T11:24:29.088Z,20.14
2019-03-09T11:26:59.677Z,20.02
2019-03-09T11:29:29.950Z,20.61
2019-03-09T11:32:00.435Z,20.21
2019-03-09T11:34:31.118Z,21.09
2019-03-09T11:37:01.386Z,21.92
2019-03-09T11:39:31.852Z,21.68
2019-03-09T11:42:02.585Z,21.67
2019-03-09T11:44:32.867Z,21.26
2019-03-09T11:47:03.310Z,21.63
2019-03-09T11:49:33.976Z,22.14
2019-03-09T11:52:04.266Z,22.27
2019-03-09T11:54:34.650Z,22.94
2019-03-09T11:57:05.358Z,22.23
2019-03-09T11:59:36.691Z,22.86
2019-03-09T12:02:07.084Z,23.68
2019-03-09T12:04:46.385Z,23.13
2019-03-09T12:07:09.931Z,23.18
2019-03-09T12:09:40.345Z,22.51
2019-03-09T12:12:10.642Z,22.05
2019-03-09T12:14:40.983Z,21.79
2019-03-09T12:17:12.983Z,20.73
2019-03-09T12:19:43.345Z,20.92
2019-03-09T12:22:13.643Z,21.34
2019-03-09T12:24:45.707Z,21.54
2019-03-09T12:27:16.228Z,21.81
2019-03-09T12:29:46.672Z,21.45
2019-03-09T12:32:17.300Z,21.60
2019-03-09T12:34:47.698Z,21.71
2019-03-09T12:37:17.973Z,21.39
2019-03-09T12:39:48.355Z,21.22
2019-03-09T12:42:18.665Z,20.52
2019-03-09T12:44:49.325Z,21.09
2019-03-09T12:47:19.696Z,20.88
2019-03-09T12:49:50.066Z,20.28
2019-03-09T12:52:20.705Z,19.86
2019-03-09T12:54:51.427Z,20.08
2019-03-09T12:57:21.748Z,19.99
2019-03-09T12:59:52.610Z,20.04
2019-03-09T13:02:23.302Z,19.53
2019-03-09T13:04:53.572Z,19.63
2019-03-09T13:07:25.048Z,19.50
2019-03-09T13:09:55.445Z,18.77
2019-03-09T13:12:25.763Z,19.30
2019-03-09T13:14:56.507Z,19.44
2019-03-09T13:17:26.830Z,19.33
2019-03-09T13:19:57.370Z,19.41
2019-03-09T13:22:28.103Z,20.14
2019-03-09T13:24:58.387Z,20.40
2019-03-09T13:27:28.974Z,20.01
2019-03-09T13:29:59.685Z,20.36
2019-03-09T13:32:30.111Z,20.32
2019-03-09T13:35:00.400Z,20.37
2019-03-09T13:37:31.241Z,20.47
2019-03-09T13:40:01.525Z,20.30
2019-03-09T13:42:32.012Z,19.89
2019-03-09T13:45:02.543Z,20.42
2019-03-09T13:47:33.223Z,20.83
2019-03-09T13:50:03.724Z,21.19
2019-03-09T13:52:34.164Z,21.41
2019-03-09T13:55:04.578Z,22.19
2019-03-09T13:57:35.109Z,22.63
2019-03-09T14:00:08.229Z,23.00
2019-03-09T14:02:38.532Z,23.45
2019-03-09T14:05:09.526Z,23.26
2019-03-09T14:07:39.849Z,23.42
2019-03-09T14:10:11.343Z,23.48
2019-03-09T14:12:43.205Z,23.91
2019-03-09T14:15:14.986Z,23.66
2019-03-09T14:17:45.507Z,22.80
2019-03-09T14:20:17.047Z,22.56
2019-03-09T14:22:47.438Z,22.66
2019-03-09T14:25:18.305Z,22.82
2019-03-09T14:27:48.797Z,22.62
2019-03-09T14:30:19.121Z,22.07
2019-03-09T14:32:49.829Z,22.41
2019-03-09T14:35:20.433Z,22.05
2019-03-09T14:37:50.748Z,22.28
2019-03-09T14:40:21.483Z,21.96
2019-03-09T14:42:52.167Z,21.82
2019-03-09T14:45:22.466Z,22.07
2019-03-09T14:47:53.141Z,21.94
2019-03-09T14:50:23.421Z,21.63
2019-03-09T14:52:54.084Z,21.25
2019-03-09T14:55:24.780Z,20.59
2019-03-09T14:57:55.103Z,20.88
2019-03-09T15:00:25.728Z,21.55
2019-03-09T15:02:56.294Z,21.72
2019-03-09T15:05:26.619Z,21.88
2019-03-09T15:07:56.982Z,21.90
2019-03-09T15:10:27.856Z,21.44
2019-03-09T15:12:58.136Z,21.82
2019-03-09T15:15:28.480Z,21.60
2019-03-09T15:17:59.246Z,21.40
2019-03-09T15:20:29.649Z,21.00
2019-03-09T15:23:00.299Z,21.15
2019-03-09T15:25:31.551Z,21.06
2019-03-09T15:28:02.185Z,20.98
2019-03-09T15:30:33.019Z,20.37
2019-03-09T15:33:03.328Z,20.47
2019-03-09T15:35:33.657Z,20.48
2019-03-09T15:38:04.106Z,20.26
2019-03-09T15:40:34.656Z,20.64
2019-03-09T15:43:04.946Z,20.18
2019-03-09T15:45:35.833Z,20.31
2019-03-09T15:48:06.476Z,20.33
2019-03-09T15:50:36.890Z,20.52
2019-03-09T15:53:07.577Z,20.53
2019-03-09T15:55:38.252Z,20.39
2019-03-09T15:58:08.727Z,20.19
2019-03-09T16:00:39.525Z,20.20
2019-03-09T16:03:09.982Z,20.26
2019-03-09T16:05:40.366Z,20.36
2019-03-09T16:08:10.737Z,20.37
2019-03-09T16:10:41.398Z,19.66
2019-03-09T16:13:11.742Z,19.53
2019-03-09T16:15:42.034Z,19.48
2019-03-09T16:18:12.720Z,19.49
2019-03-09T16:20:43.041Z,18.97
2019-03-09T16:23:13.353Z,19.04
2019-03-09T16:25:43.942Z,18.71
2019-03-09T16:28:14.593Z,18.75
2019-03-09T16:30:45.054Z,18.78
2019-03-09T16:33:15.391Z,18.45
2019-03-09T16:35:45.687Z,18.46
2019-03-09T16:38:17.270Z,18.44
2019-03-09T16:40:47.556Z,18.43
2019-03-09T16:43:18.064Z,18.25
2019-03-09T16:45:48.739Z,18.33
2019-03-09T16:48:19.186Z,18.15
2019-03-09T16:50:49.458Z,18.22
2019-03-09T16:53:20.144Z,17.94
2019-03-09T16:55:50.887Z,17.98
2019-03-09T16:58:21.328Z,18.01
2019-03-09T17:00:51.656Z,18.01
2019-03-09T17:03:22.037Z,17.87
2019-03-09T17:05:52.430Z,17.68
2019-03-09T17:08:22.904Z,17.72
2019-03-09T17:10:53.186Z,17.48
2019-03-09T17:13:23.884Z,17.63
2019-03-09T17:15:54.587Z,17.40
2019-03-09T17:18:24.932Z,17.40
2019-03-09T17:20:56.788Z,17.15
2019-03-09T17:23:28.575Z,17.15
2019-03-09T17:25:59.008Z,17.21
2019-03-09T17:28:29.443Z,17.35
2019-03-09T17:30:59.911Z,17.09
2019-03-09T17:33:30.565Z,17.12
2019-03-09T17:36:01.227Z,16.87
2019-03-09T17:38:32.607Z,16.23
2019-03-09T17:41:03.219Z,15.85
2019-03-09T17:43:33.606Z,15.58
2019-03-09T17:46:03.951Z,15.00
2019-03-09T17:48:34.309Z,14.84
2019-03-09T17:51:04.748Z,14.54
2019-03-09T17:53:35.120Z,14.34
2019-03-09T17:56:05.523Z,14.24
2019-03-09T17:58:36.269Z,13.85
2019-03-09T18:01:06.701Z,13.78
2019-03-09T18:03:37.315Z,13.71
2019-03-09T18:06:07.662Z,13.77
2019-03-09T18:08:38.086Z,13.71
2019-03-09T18:11:09.637Z,13.31
2019-03-09T18:13:39.954Z,13.41
2019-03-09T18:16:10.312Z,13.33
2019-03-09T18:18:40.921Z,13.53
2019-03-09T18:21:11.246Z,13.44
2019-03-09T18:23:41.926Z,13.14
2019-03-09T18:26:12.572Z,13.26
2019-03-09T18:28:43.137Z,13.12
2019-03-09T18:31:13.639Z,13.06
2019-03-09T18:33:44.431Z,12.94
2019-03-09T18:36:15.713Z,12.75
2019-03-09T18:38:46.346Z,12.69
2019-03-09T18:41:16.805Z,12.83
2019-03-09T18:43:47.126Z,13.23
2019-03-09T18:46:17.982Z,13.07
2019-03-09T18:48:48.299Z,13.11
2019-03-09T18:51:18.661Z,13.22
2019-03-09T18:53:49.407Z,12.80
2019-03-09T18:56:19.991Z,12.84
2019-03-09T18:58:50.340Z,13.04
2019-03-09T19:01:21.070Z,13.29
2019-03-09T19:03:51.744Z,13.30
2019-03-09T19:06:22.088Z,12.68
2019-03-09T19:08:52.600Z,12.24
2019-03-09T19:11:22.908Z,12.04
2019-03-09T19:13:53.391Z,11.89
2019-03-09T19:16:24.069Z,11.75
2019-03-09T19:18:54.429Z,11.79
2019-03-09T19:21:25.146Z,12.04
2019-03-09T19:23:55.911Z,12.26
2019-03-09T19:26:26.413Z,12.34
2019-03-09T19:28:56.871Z,12.63
2019-03-09T19:31:27.500Z,12.55
2019-03-09T19:33:57.934Z,12.37
2019-03-09T19:36:28.536Z,12.38
2019-03-09T19:38:59.063Z,12.16
2019-03-09T19:41:29.501Z,11.82
2019-03-09T19:43:59.891Z,12.00
2019-03-09T19:46:30.211Z,12.03
2019-03-09T19:49:00.556Z,11.82
2019-03-09T19:51:31.188Z,12.13
2019-03-09T19:54:01.500Z,11.87
2019-03-09T19:56:32.924Z,11.97
2019-03-09T19:59:03.550Z,12.13
2019-03-09T20:01:33.870Z,12.15
2019-03-09T20:04:05.278Z,11.95
2019-03-09T20:06:35.913Z,11.82
2019-03-09T20:09:07.976Z,11.89
2019-03-09T20:11:38.735Z,11.87
2019-03-09T20:14:09.432Z,11.69
2019-03-09T20:16:40.172Z,11.77
2019-03-09T20:19:10.525Z,11.40
2019-03-09T20:21:41.187Z,11.70
2019-03-09T20:24:11.869Z,11.73
2019-03-09T20:26:42.152Z,11.62
2019-03-09T20:29:12.923Z,11.84
2019-03-09T20:31:43.606Z,11.93
2019-03-09T20:34:13.945Z,11.89
2019-03-09T20:36:44.326Z,12.13
2019-03-09T20:39:15.142Z,12.15
2019-03-09T20:41:45.421Z,12.23
2019-03-09T20:44:15.825Z,12.01
2019-03-09T20:46:46.108Z,12.11
2019-03-09T20:49:16.548Z,12.11
2019-03-09T20:51:47.017Z,12.26
2019-03-09T20:54:17.366Z,12.49
2019-03-09T20:56:47.868Z,12.47
2019-03-09T20:59:18.576Z,12.24
2019-03-09T21:01:48.885Z,12.48
2019-03-09T21:04:19.226Z,12.62
2019-03-09T21:06:49.730Z,12.61
2019-03-09T21:09:20.306Z,12.46
2019-03-09T21:11:50.608Z,12.54
2019-03-09T21:14:21.006Z,12.57
2019-03-09T21:16:51.283Z,12.57
2019-03-09T21:19:21.688Z,12.59
2019-03-09T21:21:52.027Z,12.86
2019-03-09T21:24:23.271Z,12.75
2019-03-09T21:26:53.934Z,12.75
2019-03-09T21:29:24.467Z,12.78
2019-03-09T21:31:54.752Z,12.89
2019-03-09T21:34:25.571Z,12.88
2019-03-09T21:36:56.249Z,12.89
2019-03-09T21:39:26.588Z,13.04
2019-03-09T21:41:57.327Z,12.78
2019-03-09T21:44:27.999Z,12.87
2019-03-09T21:46:59.325Z,12.96
2019-03-09T21:49:29.835Z,13.08
2019-03-09T21:52:00.233Z,13.12
2019-03-09T21:54:30.943Z,12.96
2019-03-09T21:57:01.624Z,13.20
2019-03-09T21:59:32.037Z,13.00
2019-03-09T22:02:02.680Z,13.15
2019-03-09T22:04:33.455Z,13.05
2019-03-09T22:07:03.732Z,13.04
2019-03-09T22:09:34.267Z,13.09
2019-03-09T22:12:04.778Z,13.04
2019-03-09T22:14:35.075Z,12.97
2019-03-09T22:17:05.378Z,12.92
2019-03-09T22:19:36.161Z,12.87
2019-03-09T22:22:06.835Z,12.96
2019-03-09T22:24:37.556Z,13.00
2019-03-09T22:27:07.834Z,12.94
2019-03-09T22:29:38.378Z,13.01
2019-03-09T22:32:09.054Z,12.96
2019-03-09T22:34:39.386Z,13.05
2019-03-09T22:37:09.804Z,12.95
2019-03-09T22:39:40.726Z,13.07
2019-03-09T22:42:11.047Z,13.26
2019-03-09T22:44:41.412Z,13.05
2019-03-09T22:47:13.044Z,13.16
2019-03-09T22:49:43.573Z,13.04
2019-03-09T22:52:14.109Z,13.00
2019-03-09T22:54:44.430Z,12.54
2019-03-09T22:57:14.733Z,12.41
2019-03-09T22:59:45.732Z,12.24
2019-03-09T23:02:16.013Z,12.08
2019-03-09T23:04:46.337Z,11.84
2019-03-09T23:07:16.882Z,11.85
2019-03-09T23:09:47.409Z,11.80
2019-03-09T23:12:17.718Z,11.77
2019-03-09T23:14:48.296Z,11.64
2019-03-09T23:17:18.652Z,11.66
2019-03-09T23:19:48.980Z,11.69
2019-03-09T23:22:19.747Z,11.51
2019-03-09T23:24:50.077Z,11.62
2019-03-09T23:27:20.598Z,11.52
2019-03-09T23:29:51.186Z,11.64
2019-03-09T23:32:21.471Z,11.57
2019-03-09T23:34:52.140Z,11.51
2019-03-09T23:37:22.917Z,11.46
2019-03-09T23:39:53.485Z,11.34
2019-03-09T23:42:24.095Z,11.46
2019-03-09T23:44:54.598Z,11.60
2019-03-09T23:47:24.875Z,11.78
2019-03-09T23:49:55.412Z,11.91
2019-03-09T23:52:26.108Z,11.96
2019-03-09T23:54:56.537Z,11.97
2019-03-09T23:57:27.155Z,11.98
2019-03-09T23:59:57.539Z,11.95
